createdAt,value
2023-12-03T00:04:15.102Z,96079.94
2023-12-03T00:14:18.612Z,96088.48
2023-12-03T00:24:22.729Z,96111.95
2023-12-03T00:34:26.015Z,96135.83
2023-12-03T00:44:29.869Z,96153.04
2023-12-03T00:54:33.380Z,96177.77
2023-12-03T01:04:36.716Z,96204.14
2023-12-03T01:14:40.236Z,96221.08
2023-12-03T01:24:43.424Z,96233.05
2023-12-03T01:34:46.554Z,96240.35
2023-12-03T01:44:49.715Z,96253.02
2023-12-03T01:54:53.081Z,96252.25
2023-12-03T02:04:56.514Z,96268.53
2023-12-03T02:14:59.949Z,96283.89
2023-12-03T02:25:03.404Z,96293.91
2023-12-03T02:35:07.235Z,96321.63
2023-12-03T02:45:11.522Z,96342.55
2023-12-03T02:55:15.264Z,96360.45
2023-12-03T03:05:18.431Z,96373.44
2023-12-03T03:15:21.860Z,96380.17
2023-12-03T03:25:25.503Z,96390.44
2023-12-03T03:35:28.842Z,96408.89
2023-12-03T03:45:32.105Z,96427.34
2023-12-03T03:55:35.529Z,96440.37
2023-12-03T04:05:38.870Z,96449.75
2023-12-03T04:15:42.172Z,96463.94
2023-12-03T04:25:45.350Z,96470.59
2023-12-03T04:35:48.416Z,96475.97
2023-12-03T04:45:51.877Z,96474.96
2023-12-03T04:55:55.202Z,96499.35
2023-12-03T05:05:58.410Z,96515.92
2023-12-03T05:16:03.704Z,96535.27
2023-12-03T05:26:07.862Z,96556.61
2023-12-03T05:36:21.924Z,96583.53
2023-12-03T05:46:25.200Z,96586.70
2023-12-03T05:56:29.671Z,96584.94
2023-12-03T06:06:33.282Z,96602.38
2023-12-03T06:16:36.770Z,96610.88
2023-12-03T06:26:40.003Z,96623.71
2023-12-03T06:36:43.271Z,96620.38
2023-12-03T06:46:46.589Z,96640.08
2023-12-03T06:56:50.067Z,96664.08
2023-12-03T07:06:53.669Z,96676.88
2023-12-03T07:16:57.469Z,96696.07
2023-12-03T07:27:00.774Z,96704.92
2023-12-03T07:37:04.633Z,96707.96
2023-12-03T07:47:07.972Z,96719.69
2023-12-03T07:57:11.324Z,96729.04
2023-12-03T08:07:15.120Z,96732.48
2023-12-03T08:17:18.338Z,96742.04
2023-12-03T08:27:23.065Z,96753.99
2023-12-03T08:37:27.605Z,96775.98
2023-12-03T08:47:32.688Z,96794.98
2023-12-03T08:57:38.948Z,96815.87
2023-12-03T09:07:44.242Z,96825.56
2023-12-03T09:17:49.138Z,96830.14
2023-12-03T09:27:53.372Z,96840.03
2023-12-03T09:37:57.595Z,96844.74
2023-12-03T09:48:03.511Z,96851.04
2023-12-03T09:58:13.381Z,96855.22
2023-12-03T10:08:20.075Z,96861.91
2023-12-03T10:18:26.130Z,96873.84
2023-12-03T10:28:32.475Z,96886.64
2023-12-03T10:38:45.885Z,96893.56
2023-12-03T10:48:54.286Z,96899.70
2023-12-03T10:59:10.897Z,96902.93
2023-12-03T11:09:19.654Z,96918.26
2023-12-03T11:19:28.349Z,96927.22
2023-12-03T11:29:53.294Z,96943.78
2023-12-03T11:40:17.720Z,96954.42
2023-12-03T11:50:24.399Z,96971.52
2023-12-03T12:00:33.846Z,96978.05
2023-12-03T12:10:40.453Z,96978.57
2023-12-03T12:20:47.234Z,96990.40
2023-12-03T12:30:52.710Z,97001.98
2023-12-03T12:41:03.137Z,97008.32
2023-12-03T12:51:07.574Z,97009.88
2023-12-03T13:01:13.324Z,97022.47
2023-12-03T13:11:21.466Z,97032.68
2023-12-03T13:21:27.516Z,97045.25
2023-12-03T13:31:33.830Z,97055.73
2023-12-03T13:41:40.345Z,97066.11
2023-12-03T13:51:46.688Z,97083.95
2023-12-03T14:01:53.135Z,97099.02
2023-12-03T14:11:59.914Z,97120.83
2023-12-03T14:22:05.546Z,97135.26
2023-12-03T14:32:11.556Z,97144.36
2023-12-03T14:42:17.425Z,97152.86
2023-12-03T14:52:23.718Z,97164.50
2023-12-03T15:02:29.796Z,97167.46
2023-12-03T15:12:37.587Z,97181.76
2023-12-03T15:22:42.011Z,97198.56
2023-12-03T15:32:47.184Z,97207.48
2023-12-03T15:42:55.866Z,97213.73
2023-12-03T15:53:00.446Z,97236.76
2023-12-03T16:03:07.277Z,97245.08
2023-12-03T16:13:14.382Z,97264.34
2023-12-03T16:23:19.436Z,97261.88
2023-12-03T16:33:27.031Z,97271.05
2023-12-03T16:43:38.504Z,97282.44
2023-12-03T16:53:42.607Z,97288.47
2023-12-03T17:03:46.419Z,97294.15
2023-12-03T17:13:49.839Z,97299.56
2023-12-03T17:23:53.585Z,97313.98
2023-12-03T17:33:57.770Z,97308.62
2023-12-03T17:44:01.165Z,97313.00
2023-12-03T17:54:07.814Z,97320.55
2023-12-03T18:04:11.306Z,97321.70
2023-12-03T18:14:14.773Z,97326.35
2023-12-03T18:24:21.297Z,97331.02
2023-12-03T18:34:25.592Z,97329.59
2023-12-03T18:44:30.262Z,97329.48
2023-12-03T18:54:36.037Z,97325.23
2023-12-03T19:04:39.549Z,97330.90
2023-12-03T19:14:43.751Z,97340.15
2023-12-03T19:24:48.173Z,97342.16
2023-12-03T19:34:53.337Z,97351.70
2023-12-03T19:44:57.566Z,97348.00
2023-12-03T19:55:01.145Z,97351.71
2023-12-03T20:05:08.072Z,97355.30
2023-12-03T20:15:20.862Z,97352.19
2023-12-03T20:25:28.645Z,97351.61
2023-12-03T20:35:32.224Z,97345.36
2023-12-03T20:45:36.661Z,97339.98
2023-12-03T20:55:40.107Z,97340.16
2023-12-03T21:05:49.103Z,97347.30
2023-12-03T21:15:55.145Z,97354.38
2023-12-03T21:25:58.332Z,97369.48
2023-12-03T21:36:01.716Z,97373.14
2023-12-03T21:46:05.569Z,97377.45
2023-12-03T21:56:09.103Z,97386.83
2023-12-03T22:06:12.524Z,97389.16
2023-12-03T22:16:15.880Z,97408.61
2023-12-03T22:26:19.140Z,97411.73
2023-12-03T22:36:22.337Z,97411.88
2023-12-03T22:46:25.635Z,97416.65
2023-12-03T22:56:28.945Z,97407.55
2023-12-03T23:06:32.198Z,97399.87
2023-12-03T23:16:45.039Z,97403.97
2023-12-03T23:26:48.579Z,97406.90
2023-12-03T23:36:52.197Z,97405.21
2023-12-03T23:46:55.615Z,97405.13
2023-12-03T23:56:58.917Z,97403.05
